createdAt,value
2022-11-06T00:02:19.382Z,100230.97
2022-11-06T00:04:47.772Z,100237.25
2022-11-06T00:07:14.878Z,100234.59
2022-11-06T00:09:42.004Z,100235.91
2022-11-06T00:12:08.948Z,100228.13
2022-11-06T00:14:35.850Z,100232.06
2022-11-06T00:17:02.810Z,100226.09
2022-11-06T00:19:29.723Z,100229.72
2022-11-06T00:21:56.814Z,100224.75
2022-11-06T00:24:23.739Z,100234.81
2022-11-06T00:26:54.379Z,100234.50
2022-11-06T00:29:21.822Z,100235.63
2022-11-06T00:31:50.257Z,100235.78
2022-11-06T00:34:17.410Z,100234.41
2022-11-06T00:36:44.315Z,100234.59
2022-11-06T00:39:11.656Z,100231.44
2022-11-06T00:41:38.564Z,100232.44
2022-11-06T00:44:05.493Z,100228.09
2022-11-06T00:46:32.455Z,100227.25
2022-11-06T00:48:59.499Z,100232.72
2022-11-06T00:51:35.723Z,100227.59
2022-11-06T00:54:06.162Z,100225.91
2022-11-06T00:56:34.090Z,100229.69
2022-11-06T00:59:04.383Z,100227.03
2022-11-06T01:01:38.838Z,100224.56
2022-11-06T01:04:21.591Z,100219.41
2022-11-06T01:06:53.282Z,100214.41
2022-11-06T01:09:24.872Z,100214.41
2022-11-06T01:12:13.366Z,100224.34
2022-11-06T01:14:42.417Z,100223.84
2022-11-06T01:17:09.524Z,100227.47
2022-11-06T01:19:36.515Z,100225.81
2022-11-06T01:22:03.521Z,100222.47
2022-11-06T01:24:31.190Z,100220.00
2022-11-06T01:27:25.575Z,100215.97
2022-11-06T01:29:45.424Z,100217.28
2022-11-06T01:32:12.815Z,100210.63
2022-11-06T01:34:39.834Z,100214.28
2022-11-06T01:37:11.692Z,100202.31
2022-11-06T01:39:41.226Z,100198.13
2022-11-06T01:42:11.609Z,100198.28
2022-11-06T01:44:44.342Z,100199.25
2022-11-06T01:47:37.751Z,100187.81
2022-11-06T01:50:09.637Z,100189.63
2022-11-06T01:52:36.671Z,100198.41
2022-11-06T01:55:25.930Z,100192.28
2022-11-06T01:57:54.908Z,100187.47
2022-11-06T02:00:21.885Z,100183.97
2022-11-06T02:02:49.965Z,100171.88
2022-11-06T02:05:17.776Z,100163.91
2022-11-06T02:07:45.712Z,100156.78
2022-11-06T02:10:12.799Z,100154.81
2022-11-06T02:13:04.905Z,100143.38
2022-11-06T02:15:57.884Z,100138.09
2022-11-06T02:18:33.883Z,100136.25
2022-11-06T02:21:45.231Z,100120.38
2022-11-06T02:24:24.076Z,100122.06
2022-11-06T02:27:02.831Z,100131.66
2022-11-06T02:29:52.700Z,100139.28
2022-11-06T02:32:37.618Z,100138.47
2022-11-06T02:35:30.529Z,100132.34
2022-11-06T02:38:27.011Z,100115.94
2022-11-06T02:40:59.755Z,100118.72
2022-11-06T02:43:35.346Z,100119.69
2022-11-06T02:46:37.310Z,100119.19
2022-11-06T02:49:14.872Z,100113.22
2022-11-06T02:51:50.051Z,100103.75
2022-11-06T02:54:22.328Z,100095.16
2022-11-06T02:56:52.616Z,100103.09
2022-11-06T02:59:30.598Z,100103.41
2022-11-06T03:02:07.174Z,100100.06
2022-11-06T03:04:41.526Z,100107.34
2022-11-06T03:07:43.328Z,100111.13
2022-11-06T03:10:12.030Z,100121.88
2022-11-06T03:12:52.699Z,100110.63
2022-11-06T03:15:39.019Z,100110.75
2022-11-06T03:18:32.700Z,100102.97
2022-11-06T03:21:26.977Z,100108.75
2022-11-06T03:24:11.298Z,100100.09
2022-11-06T03:26:46.230Z,100101.25
2022-11-06T03:29:43.488Z,100098.91
2022-11-06T03:32:28.499Z,100092.94
2022-11-06T03:35:19.615Z,100094.91
2022-11-06T03:38:12.810Z,100095.91
2022-11-06T03:40:47.022Z,100098.84
2022-11-06T03:43:18.566Z,100096.38
2022-11-06T03:45:47.708Z,100100.81
2022-11-06T03:48:28.520Z,100100.00
2022-11-06T03:51:06.859Z,100095.69
2022-11-06T03:54:05.445Z,100088.03
2022-11-06T03:56:50.897Z,100082.91
2022-11-06T03:59:23.302Z,100078.75
2022-11-06T04:01:53.248Z,100066.47
2022-11-06T04:04:41.839Z,100065.81
2022-11-06T04:07:18.682Z,100073.91
2022-11-06T04:10:17.671Z,100065.44
2022-11-06T04:13:05.223Z,100063.94
2022-11-06T04:15:49.021Z,100065.22
2022-11-06T04:18:20.108Z,100062.88
2022-11-06T04:21:22.266Z,100054.28
2022-11-06T04:24:27.665Z,100052.91
2022-11-06T04:27:25.848Z,100054.88
2022-11-06T04:30:17.872Z,100044.91
2022-11-06T04:33:00.132Z,100048.84
2022-11-06T04:36:11.035Z,100038.56
2022-11-06T04:39:07.832Z,100037.19
2022-11-06T04:41:44.632Z,100029.72
2022-11-06T04:44:45.838Z,100035.63
2022-11-06T04:47:17.713Z,100050.13
2022-11-06T04:49:45.749Z,100060.16
2022-11-06T04:52:22.933Z,100058.81
2022-11-06T04:54:50.633Z,100063.28
2022-11-06T04:57:17.769Z,100061.63
2022-11-06T04:59:44.736Z,100066.03
2022-11-06T05:02:11.845Z,100059.81
2022-11-06T05:04:38.913Z,100068.56
2022-11-06T05:07:05.881Z,100069.38
2022-11-06T05:09:33.176Z,100066.75
2022-11-06T05:12:00.229Z,100058.81
2022-11-06T05:14:27.174Z,100067.41
2022-11-06T05:16:54.092Z,100067.41
2022-11-06T05:19:21.005Z,100072.72
2022-11-06T05:22:06.261Z,100076.34
2022-11-06T05:24:33.170Z,100070.22
2022-11-06T05:27:00.141Z,100053.53
2022-11-06T05:29:27.627Z,100067.56
2022-11-06T05:31:54.674Z,100065.75
2022-11-06T05:34:21.996Z,100062.13
2022-11-06T05:36:48.897Z,100058.66
2022-11-06T05:39:15.829Z,100049.91
2022-11-06T05:41:42.737Z,100052.38
2022-11-06T05:44:09.799Z,100046.25
2022-11-06T05:46:52.053Z,100049.56
2022-11-06T05:49:19.299Z,100042.47
2022-11-06T05:51:46.721Z,100052.94
2022-11-06T05:54:14.229Z,100057.38
2022-11-06T05:56:41.198Z,100048.63
2022-11-06T05:59:08.932Z,100033.44
2022-11-06T06:01:36.008Z,100014.91
2022-11-06T06:04:03.102Z,100009.63
2022-11-06T06:06:30.099Z,100019.38
2022-11-06T06:08:56.996Z,100020.50
2022-11-06T06:11:24.425Z,100028.44
2022-11-06T06:13:51.419Z,100021.47
2022-11-06T06:16:18.352Z,100015.38
2022-11-06T06:18:45.294Z,100011.88
2022-11-06T06:21:12.227Z,100012.88
2022-11-06T06:23:39.174Z,100013.88
2022-11-06T06:26:06.239Z,100005.09
2022-11-06T06:28:33.368Z,99993.69
2022-11-06T06:31:07.814Z,99994.53
2022-11-06T06:33:34.759Z,99977.81
2022-11-06T06:36:06.218Z,99971.72
2022-11-06T06:38:33.748Z,99975.47
2022-11-06T06:41:05.220Z,99973.97
2022-11-06T06:43:32.231Z,99965.50
2022-11-06T06:46:00.812Z,99973.75
2022-11-06T06:48:28.739Z,99960.00
2022-11-06T06:51:03.167Z,99945.56
2022-11-06T06:53:30.695Z,99948.81
2022-11-06T06:56:01.993Z,99954.72
2022-11-06T06:58:29.956Z,99943.09
2022-11-06T07:01:02.868Z,99942.84
2022-11-06T07:03:30.371Z,99937.34
2022-11-06T07:05:58.802Z,99928.31
2022-11-06T07:08:28.548Z,99913.09
2022-11-06T07:11:05.157Z,99919.78
2022-11-06T07:13:36.115Z,99903.56
2022-11-06T07:16:06.232Z,99909.13
2022-11-06T07:18:34.826Z,99910.25
2022-11-06T07:21:06.152Z,99911.53
2022-11-06T07:23:35.495Z,99917.78
2022-11-06T07:26:04.230Z,99913.66
2022-11-06T07:28:32.204Z,99896.16
2022-11-06T07:31:01.036Z,99885.03
2022-11-06T07:33:28.114Z,99878.09
2022-11-06T07:35:55.091Z,99875.47
2022-11-06T07:38:22.113Z,99867.53
2022-11-06T07:40:49.047Z,99862.25
2022-11-06T07:43:16.067Z,99886.84
2022-11-06T07:45:43.023Z,99885.88
2022-11-06T07:48:09.962Z,99883.94
2022-11-06T07:50:37.051Z,99883.63
2022-11-06T07:53:04.350Z,99875.53
2022-11-06T07:55:31.385Z,99886.81
2022-11-06T07:57:59.584Z,99887.47
2022-11-06T08:00:27.818Z,99884.53
2022-11-06T08:02:54.847Z,99886.06
2022-11-06T08:05:21.926Z,99884.47
2022-11-06T08:07:48.842Z,99893.75
2022-11-06T08:10:15.828Z,99915.09
2022-11-06T08:12:42.742Z,99902.28
2022-11-06T08:15:10.394Z,99910.59
2022-11-06T08:17:37.494Z,99914.63
2022-11-06T08:20:05.089Z,99911.38
2022-11-06T08:22:32.458Z,99922.16
2022-11-06T08:24:59.582Z,99922.09
2022-11-06T08:27:28.044Z,99928.25
2022-11-06T08:29:54.999Z,99943.06
2022-11-06T08:32:22.045Z,99957.19
2022-11-06T08:34:48.964Z,99966.88
2022-11-06T08:37:15.918Z,99956.19
2022-11-06T08:39:44.405Z,99948.00
2022-11-06T08:42:11.962Z,99954.03
2022-11-06T08:44:38.988Z,99967.00
2022-11-06T08:47:05.947Z,99952.38
2022-11-06T08:49:32.861Z,99957.41
2022-11-06T08:51:59.772Z,99937.75
2022-11-06T08:54:29.590Z,99924.88
2022-11-06T08:56:57.765Z,99928.09
2022-11-06T08:59:24.758Z,99939.22
2022-11-06T09:01:51.858Z,99922.22
2022-11-06T09:04:19.093Z,99914.78
2022-11-06T09:06:48.119Z,99908.19
2022-11-06T09:09:15.348Z,99901.59
2022-11-06T09:11:42.310Z,99887.16
2022-11-06T09:14:09.242Z,99891.47
2022-11-06T09:16:36.161Z,99880.69
2022-11-06T09:19:03.292Z,99873.53
2022-11-06T09:21:30.272Z,99861.44
2022-11-06T09:23:57.314Z,99866.56
2022-11-06T09:26:24.255Z,99862.06
2022-11-06T09:28:51.227Z,99858.56
2022-11-06T09:31:18.285Z,99846.06
2022-11-06T09:33:45.306Z,99854.19
2022-11-06T09:36:12.283Z,99834.75
2022-11-06T09:38:39.472Z,99831.06
2022-11-06T09:41:06.564Z,99833.84
2022-11-06T09:44:37.053Z,99839.28
2022-11-06T09:47:29.790Z,99809.56
2022-11-06T09:49:58.021Z,99811.34
2022-11-06T09:52:42.756Z,99817.28
2022-11-06T09:55:17.772Z,99809.97
2022-11-06T09:57:57.556Z,99804.63
2022-11-06T10:00:24.670Z,99788.94
2022-11-06T10:03:02.352Z,99781.28
2022-11-06T10:05:37.923Z,99790.19
2022-11-06T10:08:23.779Z,99792.97
2022-11-06T10:11:13.914Z,99779.78
2022-11-06T10:14:21.455Z,99772.56
2022-11-06T10:17:22.576Z,99779.69
2022-11-06T10:20:08.943Z,99779.31
2022-11-06T10:22:45.235Z,99768.41
2022-11-06T10:26:04.165Z,99764.88
2022-11-06T10:29:17.908Z,99750.56
2022-11-06T10:32:22.379Z,99746.16
2022-11-06T10:35:14.448Z,99728.81
2022-11-06T10:38:05.444Z,99719.28
2022-11-06T10:40:33.237Z,99713.22
2022-11-06T10:43:55.261Z,99711.66
2022-11-06T10:46:42.701Z,99702.31
2022-11-06T10:49:55.732Z,99709.16
2022-11-06T10:53:03.203Z,99703.75
2022-11-06T10:56:17.014Z,99694.00
2022-11-06T10:58:48.051Z,99685.44
2022-11-06T11:01:15.313Z,99690.84
2022-11-06T11:03:46.179Z,99699.13
2022-11-06T11:06:14.291Z,99697.97
2022-11-06T11:08:52.687Z,99691.50
2022-11-06T11:11:29.420Z,99690.13
2022-11-06T11:13:56.343Z,99679.31
2022-11-06T11:16:24.532Z,99682.25
2022-11-06T11:18:52.034Z,99675.16
2022-11-06T11:21:18.816Z,99670.91
2022-11-06T11:24:05.442Z,99659.66
2022-11-06T11:26:37.505Z,99652.53
2022-11-06T11:29:48.844Z,99655.44
2022-11-06T11:32:17.316Z,99650.16
2022-11-06T11:34:56.642Z,99641.63
2022-11-06T11:37:29.532Z,99643.06
2022-11-06T11:40:16.756Z,99639.63
2022-11-06T11:42:43.711Z,99634.53
2022-11-06T11:45:10.535Z,99616.50
2022-11-06T11:47:47.358Z,99610.25
2022-11-06T11:50:29.457Z,99602.66
2022-11-06T11:53:07.138Z,99597.59
2022-11-06T11:55:42.568Z,99586.50
2022-11-06T11:58:23.659Z,99589.81
2022-11-06T12:01:03.175Z,99571.13
2022-11-06T12:03:41.826Z,99576.28
2022-11-06T12:06:14.112Z,99575.06
2022-11-06T12:08:55.330Z,99569.13
2022-11-06T12:11:26.898Z,99566.69
2022-11-06T12:14:23.984Z,99564.84
2022-11-06T12:17:16.427Z,99562.19
2022-11-06T12:19:57.519Z,99558.47
2022-11-06T12:22:37.604Z,99544.28
2022-11-06T12:25:19.325Z,99547.16
2022-11-06T12:27:57.684Z,99533.16
2022-11-06T12:30:25.146Z,99536.63
2022-11-06T12:33:15.739Z,99541.75
2022-11-06T12:36:06.911Z,99527.75
2022-11-06T12:39:03.831Z,99531.66
2022-11-06T12:41:42.814Z,99532.44
2022-11-06T12:44:16.013Z,99525.69
2022-11-06T12:47:07.148Z,99521.50
2022-11-06T12:49:39.869Z,99516.59
2022-11-06T12:52:24.404Z,99514.94
2022-11-06T12:55:20.209Z,99513.31
2022-11-06T12:58:58.130Z,99505.31
2022-11-06T13:01:31.551Z,99503.84
2022-11-06T13:04:30.401Z,99498.94
2022-11-06T13:07:20.925Z,99487.22
2022-11-06T13:10:19.522Z,99480.41
2022-11-06T13:12:58.377Z,99483.72
2022-11-06T13:16:19.522Z,99485.75
2022-11-06T13:19:14.415Z,99478.78
2022-11-06T13:22:39.685Z,99476.75
2022-11-06T13:25:44.468Z,99460.09
2022-11-06T13:28:34.696Z,99456.22
2022-11-06T13:31:06.134Z,99457.44
2022-11-06T13:33:47.889Z,99451.91
2022-11-06T13:36:15.911Z,99446.34
2022-11-06T13:39:15.787Z,99450.88
2022-11-06T13:41:42.696Z,99451.28
2022-11-06T13:44:15.968Z,99454.16
2022-11-06T13:47:01.515Z,99438.16
2022-11-06T13:50:04.578Z,99433.22
2022-11-06T13:52:59.826Z,99445.09
2022-11-06T13:55:39.077Z,99433.22
2022-11-06T13:58:15.996Z,99420.28
2022-11-06T14:01:31.682Z,99413.91
2022-11-06T14:04:16.837Z,99411.44
2022-11-06T14:06:45.004Z,99414.31
2022-11-06T14:09:24.353Z,99412.69
2022-11-06T14:12:03.453Z,99417.59
2022-11-06T14:14:32.987Z,99414.31
2022-11-06T14:17:16.606Z,99417.00
2022-11-06T14:20:05.014Z,99403.66
2022-11-06T14:22:38.680Z,99402.84
2022-11-06T14:25:27.288Z,99395.66
2022-11-06T14:27:57.060Z,99398.69
2022-11-06T14:30:50.316Z,99394.41
2022-11-06T14:33:41.902Z,99404.84
2022-11-06T14:36:34.751Z,99410.19
2022-11-06T14:39:03.723Z,99400.34
2022-11-06T14:41:37.611Z,99399.13
2022-11-06T14:44:33.168Z,99399.75
2022-11-06T14:47:03.448Z,99409.59
2022-11-06T14:49:48.571Z,99411.88
2022-11-06T14:52:18.324Z,99404.88
2022-11-06T14:55:05.390Z,99401.22
2022-11-06T14:57:49.866Z,99402.03
2022-11-06T15:00:49.591Z,99406.56
2022-11-06T15:03:35.711Z,99400.56
2022-11-06T15:06:44.161Z,99397.91
2022-11-06T15:09:24.793Z,99398.94
2022-11-06T15:11:54.970Z,99389.66
2022-11-06T15:14:21.743Z,99383.53
2022-11-06T15:17:06.297Z,99386.41
2022-11-06T15:19:51.809Z,99382.28
2022-11-06T15:22:43.868Z,99371.03
2022-11-06T15:25:16.861Z,99364.84
2022-11-06T15:27:56.584Z,99377.56
2022-11-06T15:30:23.784Z,99383.72
2022-11-06T15:32:53.777Z,99399.91
2022-11-06T15:35:33.186Z,99386.78
2022-11-06T15:38:14.486Z,99387.63
2022-11-06T15:40:43.278Z,99387.63
2022-11-06T15:43:30.893Z,99376.34
2022-11-06T15:46:10.762Z,99369.31
2022-11-06T15:48:38.011Z,99379.19
2022-11-06T15:51:29.166Z,99377.75
2022-11-06T15:53:56.039Z,99367.47
2022-11-06T15:56:32.055Z,99366.03
2022-11-06T15:59:13.306Z,99368.28
2022-11-06T16:01:41.669Z,99364.78
2022-11-06T16:04:24.313Z,99370.31
2022-11-06T16:06:55.000Z,99359.84
2022-11-06T16:09:26.494Z,99363.34
2022-11-06T16:11:54.299Z,99356.38
2022-11-06T16:14:22.252Z,99355.75
2022-11-06T16:16:52.878Z,99351.41
2022-11-06T16:19:34.848Z,99343.63
2022-11-06T16:22:12.151Z,99349.16
2022-11-06T16:24:51.819Z,99344.88
2022-11-06T16:27:21.870Z,99350.19
2022-11-06T16:29:56.516Z,99345.25
2022-11-06T16:32:37.994Z,99343.59
2022-11-06T16:35:35.926Z,99363.50
2022-11-06T16:38:53.710Z,99356.69
2022-11-06T16:41:57.007Z,99355.25
2022-11-06T16:44:39.131Z,99355.47
2022-11-06T16:47:22.434Z,99358.13
2022-11-06T16:49:55.333Z,99383.16
2022-11-06T16:52:31.200Z,99392.16
2022-11-06T16:55:25.566Z,99396.03
2022-11-06T16:57:59.304Z,99399.91
2022-11-06T17:00:32.139Z,99395.63
2022-11-06T17:03:02.902Z,99396.63
2022-11-06T17:05:36.738Z,99409.31
2022-11-06T17:08:19.253Z,99410.34
2022-11-06T17:10:48.456Z,99407.06
2022-11-06T17:13:32.426Z,99410.75
2022-11-06T17:16:03.023Z,99414.41
2022-11-06T17:18:36.918Z,99424.44
2022-11-06T17:21:11.202Z,99448.41
2022-11-06T17:23:38.915Z,99436.13
2022-11-06T17:26:31.262Z,99447.59
2022-11-06T17:29:00.006Z,99436.13
2022-11-06T17:31:27.233Z,99436.31
2022-11-06T17:33:54.709Z,99428.34
2022-11-06T17:36:25.367Z,99434.84
2022-11-06T17:38:54.298Z,99436.91
2022-11-06T17:41:31.176Z,99437.72
2022-11-06T17:44:01.348Z,99433.22
2022-11-06T17:46:38.989Z,99431.97
2022-11-06T17:49:14.229Z,99430.31
2022-11-06T17:51:50.323Z,99424.56
2022-11-06T17:54:26.349Z,99427.44
2022-11-06T17:56:55.779Z,99425.13
2022-11-06T17:59:26.093Z,99422.22
2022-11-06T18:01:54.818Z,99444.53
2022-11-06T18:04:24.620Z,99443.94
2022-11-06T18:06:53.383Z,99440.44
2022-11-06T18:09:21.784Z,99444.31
2022-11-06T18:11:51.282Z,99447.16
2022-11-06T18:14:19.358Z,99450.22
2022-11-06T18:16:46.498Z,99446.53
2022-11-06T18:19:17.786Z,99450.22
2022-11-06T18:21:44.845Z,99442.44
2022-11-06T18:24:11.920Z,99455.91
2022-11-06T18:26:39.224Z,99449.16
2022-11-06T18:29:07.618Z,99453.44
2022-11-06T18:31:35.053Z,99449.16
2022-11-06T18:34:03.462Z,99457.13
2022-11-06T18:36:33.161Z,99455.28
2022-11-06T18:39:00.113Z,99451.81
2022-11-06T18:41:27.675Z,99453.66
2022-11-06T18:43:59.196Z,99455.69
2022-11-06T18:46:27.804Z,99462.66
2022-11-06T18:48:58.180Z,99469.81
2022-11-06T18:51:35.592Z,99473.31
2022-11-06T18:54:08.646Z,99489.09
2022-11-06T18:56:37.166Z,99483.75
2022-11-06T18:59:12.289Z,99489.72
2022-11-06T19:01:39.306Z,99486.03
2022-11-06T19:04:06.672Z,99494.00
2022-11-06T19:06:33.756Z,99501.00
2022-11-06T19:09:01.125Z,99501.00
2022-11-06T19:11:28.351Z,99488.31
2022-11-06T19:13:55.475Z,99487.31
2022-11-06T19:16:22.660Z,99487.94
2022-11-06T19:21:30.666Z,99480.97
2022-11-06T19:24:05.964Z,99478.94
2022-11-06T19:26:36.740Z,99485.91
2022-11-06T19:29:07.955Z,99482.22
2022-11-06T19:31:37.101Z,99490.41
2022-11-06T19:34:06.456Z,99478.94
2022-11-06T19:36:34.434Z,99485.91
2022-11-06T19:39:01.776Z,99496.72
2022-11-06T19:41:29.505Z,99501.88
2022-11-06T19:43:56.810Z,99511.72
2022-11-06T19:46:28.531Z,99509.88
2022-11-06T19:48:58.133Z,99504.56
2022-11-06T19:51:26.471Z,99501.69
2022-11-06T19:53:54.345Z,99512.97
2022-11-06T19:56:22.420Z,99513.16
2022-11-06T19:58:50.852Z,99518.28
2022-11-06T20:01:20.652Z,99510.50
2022-11-06T20:03:47.855Z,99503.53
2022-11-06T20:06:15.442Z,99499.03
2022-11-06T20:08:42.941Z,99503.53
2022-11-06T20:11:13.746Z,99499.84
2022-11-06T20:13:42.788Z,99502.50
2022-11-06T20:16:15.360Z,99494.53
2022-11-06T20:18:44.003Z,99500.69
2022-11-06T20:21:12.694Z,99492.69
2022-11-06T20:23:39.846Z,99503.53
2022-11-06T20:26:07.838Z,99500.06
2022-11-06T20:28:35.521Z,99499.22
2022-11-06T20:31:11.380Z,99503.53
2022-11-06T20:33:39.394Z,99503.53
2022-11-06T20:36:17.321Z,99503.72
2022-11-06T20:38:45.399Z,99509.88
2022-11-06T20:41:14.457Z,99513.56
2022-11-06T20:43:42.588Z,99512.72
2022-11-06T20:46:11.909Z,99514.56
2022-11-06T20:48:39.208Z,99515.56
2022-11-06T20:51:11.490Z,99523.75
2022-11-06T20:53:39.322Z,99523.97
2022-11-06T20:56:11.032Z,99535.63
2022-11-06T20:58:38.608Z,99532.97
2022-11-06T21:01:19.969Z,99537.28
2022-11-06T21:03:49.540Z,99547.94
2022-11-06T21:06:19.285Z,99544.03
2022-11-06T21:08:46.821Z,99551.84
2022-11-06T21:11:26.211Z,99549.16
2022-11-06T21:13:54.675Z,99558.84
2022-11-06T21:16:29.071Z,99572.78
2022-11-06T21:18:58.055Z,99573.59
2022-11-06T21:21:28.160Z,99584.06
2022-11-06T21:23:56.153Z,99580.22
2022-11-06T21:26:32.623Z,99564.03
2022-11-06T21:29:01.571Z,99574.28
2022-11-06T21:31:30.970Z,99578.59
2022-11-06T21:34:00.122Z,99572.28
2022-11-06T21:36:31.287Z,99576.59
2022-11-06T21:39:02.215Z,99576.75
2022-11-06T21:41:30.758Z,99571.25
2022-11-06T21:43:57.929Z,99571.25
2022-11-06T21:46:25.236Z,99571.25
2022-11-06T21:48:52.774Z,99586.22
2022-11-06T21:51:24.297Z,99588.88
2022-11-06T21:54:09.908Z,99591.34
2022-11-06T21:56:39.356Z,99591.34
2022-11-06T21:59:10.920Z,99585.81
2022-11-06T22:01:39.168Z,99593.00
2022-11-06T22:04:09.440Z,99596.47
2022-11-06T22:06:40.657Z,99600.78
2022-11-06T22:09:07.832Z,99601.63
2022-11-06T22:11:38.294Z,99600.78
2022-11-06T22:14:15.288Z,99601.44
2022-11-06T22:16:45.711Z,99610.69
2022-11-06T22:19:14.775Z,99599.66
2022-11-06T22:21:42.296Z,99592.09
2022-11-06T22:24:12.538Z,99600.75
2022-11-06T22:26:39.691Z,99588.88
2022-11-06T22:29:11.246Z,99598.13
2022-11-06T22:31:38.199Z,99591.78
2022-11-06T22:34:05.228Z,99603.06
2022-11-06T22:36:32.248Z,99601.03
2022-11-06T22:39:00.607Z,99601.69
2022-11-06T22:41:27.660Z,99604.34
2022-11-06T22:43:59.109Z,99611.31
2022-11-06T22:46:26.774Z,99606.59
2022-11-06T22:48:54.350Z,99624.44
2022-11-06T22:51:25.000Z,99623.63
2022-11-06T22:53:53.228Z,99624.25
2022-11-06T22:56:21.964Z,99631.41
2022-11-06T22:59:02.058Z,99636.75
2022-11-06T23:01:32.515Z,99624.91
2022-11-06T23:04:05.392Z,99629.41
2022-11-06T23:06:33.250Z,99634.53
2022-11-06T23:09:00.425Z,99633.72
2022-11-06T23:11:29.212Z,99638.84
2022-11-06T23:13:56.226Z,99645.00
2022-11-06T23:16:44.123Z,99645.81
2022-11-06T23:19:15.450Z,99645.81
2022-11-06T23:21:43.579Z,99647.47
2022-11-06T23:24:11.205Z,99657.09
2022-11-06T23:26:38.392Z,99654.44
2022-11-06T23:29:05.493Z,99655.47
2022-11-06T23:31:32.396Z,99657.75
2022-11-06T23:33:59.296Z,99662.28
2022-11-06T23:36:26.387Z,99662.28
2022-11-06T23:38:54.162Z,99662.28
2022-11-06T23:41:39.389Z,99663.09
2022-11-06T23:44:26.386Z,99662.44
2022-11-06T23:46:53.520Z,99654.28
2022-11-06T23:49:20.492Z,99650.59
2022-11-06T23:51:47.544Z,99646.44
2022-11-06T23:54:14.568Z,99651.97
2022-11-06T23:56:41.848Z,99638.44
2022-11-06T23:59:08.833Z,99642.78
